createdAt,value
2018-09-12T00:01:00.119Z,3.33
2018-09-12T00:03:28.682Z,2.97
2018-09-12T00:05:57.262Z,3.17
2018-09-12T00:08:25.892Z,3.40
2018-09-12T00:10:54.493Z,3.20
2018-09-12T00:13:23.066Z,2.67
2018-09-12T00:15:51.952Z,3.47
2018-09-12T00:18:20.527Z,2.93
2018-09-12T00:20:49.122Z,3.27
2018-09-12T00:23:18.021Z,3.20
2018-09-12T00:25:46.591Z,3.33
2018-09-12T00:28:15.174Z,3.13
2018-09-12T00:30:43.763Z,2.30
2018-09-12T00:33:12.359Z,2.60
2018-09-12T00:35:40.907Z,3.63
2018-09-12T00:38:09.488Z,3.50
2018-09-12T00:40:38.078Z,3.13
2018-09-12T00:43:06.666Z,3.20
2018-09-12T00:45:35.265Z,2.90
2018-09-12T00:48:03.849Z,3.13
2018-09-12T00:50:32.390Z,3.30
2018-09-12T00:53:00.964Z,3.53
2018-09-12T00:55:29.563Z,3.07
2018-09-12T00:57:58.130Z,3.60
2018-09-12T01:00:26.746Z,3.30
2018-09-12T01:02:55.331Z,3.50
2018-09-12T01:05:23.916Z,2.83
2018-09-12T01:07:52.528Z,3.27
2018-09-12T01:10:21.068Z,3.40
2018-09-12T01:12:49.587Z,3.07
2018-09-12T01:15:18.129Z,3.10
2018-09-12T01:17:46.628Z,3.23
2018-09-12T01:20:15.195Z,3.20
2018-09-12T01:22:43.702Z,3.33
2018-09-12T01:25:12.205Z,3.10
2018-09-12T01:27:40.731Z,3.60
2018-09-12T01:30:10.172Z,3.60
2018-09-12T01:32:38.667Z,3.20
2018-09-12T01:35:07.239Z,3.03
2018-09-12T01:37:35.764Z,3.87
2018-09-12T01:40:04.375Z,3.13
2018-09-12T01:42:32.890Z,3.63
2018-09-12T01:45:01.417Z,2.90
2018-09-12T01:47:30.000Z,2.97
2018-09-12T01:49:58.492Z,2.93
2018-09-12T01:52:27.032Z,2.90
2018-09-12T01:54:55.528Z,3.57
2018-09-12T01:57:24.344Z,2.97
2018-09-12T01:59:52.833Z,3.20
2018-09-12T02:02:21.364Z,3.20
2018-09-12T02:04:49.869Z,3.57
2018-09-12T02:07:18.375Z,3.30
2018-09-12T02:09:46.923Z,3.07
2018-09-12T02:12:15.443Z,3.00
2018-09-12T02:14:43.943Z,3.20
2018-09-12T02:17:12.461Z,3.00
2018-09-12T02:19:41.229Z,2.47
2018-09-12T02:22:09.746Z,3.23
2018-09-12T02:24:38.483Z,3.10
2018-09-12T02:27:07.033Z,3.17
2018-09-12T02:29:35.552Z,2.57
2018-09-12T02:32:04.028Z,3.00
2018-09-12T02:34:32.549Z,3.30
2018-09-12T02:37:01.057Z,3.60
2018-09-12T02:39:29.564Z,3.30
2018-09-12T02:41:58.072Z,2.87
2018-09-12T02:44:26.604Z,3.27
2018-09-12T02:46:55.401Z,3.30
2018-09-12T02:49:23.913Z,3.27
2018-09-12T02:51:52.432Z,3.17
2018-09-12T02:54:20.929Z,3.10
2018-09-12T02:56:49.440Z,3.10
2018-09-12T02:59:17.939Z,2.80
2018-09-12T03:01:46.464Z,3.47
2018-09-12T03:04:31.699Z,2.73
2018-09-12T03:07:00.269Z,3.40
2018-09-12T03:09:28.760Z,2.80
2018-09-12T03:11:57.282Z,3.77
2018-09-12T03:14:25.796Z,3.33
2018-09-12T03:16:54.280Z,2.83
2018-09-12T03:19:22.796Z,3.63
2018-09-12T03:21:51.633Z,3.30
2018-09-12T03:24:20.196Z,3.13
2018-09-12T03:26:48.798Z,3.17
2018-09-12T03:29:17.288Z,3.03
2018-09-12T03:31:45.813Z,3.30
2018-09-12T03:34:14.315Z,3.87
2018-09-12T03:36:42.820Z,3.37
2018-09-12T03:39:12.129Z,2.77
2018-09-12T03:41:41.311Z,3.03
2018-09-12T03:44:11.332Z,3.87
2018-09-12T03:46:40.414Z,3.43
2018-09-12T03:49:08.935Z,3.00
2018-09-12T03:51:37.435Z,3.40
2018-09-12T03:54:06.261Z,2.80
2018-09-12T03:56:34.771Z,3.40
2018-09-12T03:59:04.229Z,3.50
2018-09-12T04:01:32.799Z,2.30
2018-09-12T04:04:01.307Z,2.90
2018-09-12T04:06:29.804Z,3.10
2018-09-12T04:08:58.356Z,2.57
2018-09-12T04:11:26.908Z,3.20
2018-09-12T04:13:55.419Z,2.93
2018-09-12T04:16:23.927Z,3.37
2018-09-12T04:18:52.438Z,2.83
2018-09-12T04:21:20.959Z,3.23
2018-09-12T04:23:49.477Z,3.00
2018-09-12T04:26:18.577Z,3.00
2018-09-12T04:28:47.404Z,3.00
2018-09-12T04:31:15.904Z,3.20
2018-09-12T04:33:44.400Z,3.10
2018-09-12T04:36:12.925Z,3.10
2018-09-12T04:38:41.451Z,3.07
2018-09-12T04:41:09.941Z,3.30
2018-09-12T04:43:38.572Z,2.63
2018-09-12T04:46:07.081Z,3.03
2018-09-12T04:48:35.625Z,3.10
2018-09-12T04:51:04.148Z,3.10
2018-09-12T04:53:32.652Z,2.80
2018-09-12T04:56:01.187Z,3.27
2018-09-12T04:58:29.672Z,3.17
2018-09-12T05:00:58.210Z,3.00
2018-09-12T05:03:26.707Z,3.23
2018-09-12T05:05:55.223Z,3.07
2018-09-12T05:08:23.723Z,2.53
2018-09-12T05:10:52.252Z,2.67
2018-09-12T05:13:20.754Z,3.03
2018-09-12T05:15:49.369Z,2.97
2018-09-12T05:18:17.836Z,2.80
2018-09-12T05:20:46.368Z,2.47
2018-09-12T05:23:14.884Z,2.73
2018-09-12T05:25:43.675Z,2.80
2018-09-12T05:28:12.187Z,3.23
2018-09-12T05:30:40.695Z,2.73
2018-09-12T05:33:09.272Z,3.00
2018-09-12T05:35:37.754Z,2.60
2018-09-12T05:38:06.292Z,2.50
2018-09-12T05:40:34.803Z,3.27
2018-09-12T05:43:03.287Z,2.97
2018-09-12T05:45:31.820Z,3.40
2018-09-12T05:48:00.309Z,3.23
2018-09-12T05:50:28.823Z,2.80
2018-09-12T05:52:57.359Z,2.43
2018-09-12T05:55:25.888Z,3.20
2018-09-12T05:57:54.369Z,2.87
2018-09-12T06:00:23.206Z,2.83
2018-09-12T06:02:52.072Z,3.00
2018-09-12T06:05:20.589Z,3.40
2018-09-12T06:07:49.092Z,2.27
2018-09-12T06:10:17.617Z,3.07
2018-09-12T06:12:46.150Z,2.70
2018-09-12T06:15:14.692Z,3.67
2018-09-12T06:17:43.224Z,3.00
2018-09-12T06:20:12.020Z,2.60
2018-09-12T06:22:40.568Z,2.70
2018-09-12T06:25:09.051Z,3.20
2018-09-12T06:27:37.581Z,2.97
2018-09-12T06:30:06.219Z,3.53
2018-09-12T06:32:34.728Z,2.90
2018-09-12T06:35:03.318Z,2.90
2018-09-12T06:37:31.824Z,2.80
2018-09-12T06:40:00.320Z,3.10
2018-09-12T06:42:28.827Z,3.03
2018-09-12T06:44:57.328Z,3.27
2018-09-12T06:47:25.851Z,2.80
2018-09-12T06:49:54.336Z,2.90
2018-09-12T06:52:22.885Z,2.90
2018-09-12T06:54:51.816Z,3.13
2018-09-12T06:57:20.290Z,3.00
2018-09-12T06:59:48.806Z,2.80
2018-09-12T07:02:17.303Z,2.53
2018-09-12T07:04:45.838Z,3.03
2018-09-12T07:07:14.323Z,2.73
2018-09-12T07:09:42.839Z,3.10
2018-09-12T07:12:11.686Z,2.67
2018-09-12T07:14:40.191Z,3.07
2018-09-12T07:17:08.708Z,3.07
2018-09-12T07:19:37.236Z,3.00
2018-09-12T07:22:05.751Z,3.03
2018-09-12T07:24:34.372Z,2.60
2018-09-12T07:27:02.823Z,2.90
2018-09-12T07:29:31.328Z,3.07
2018-09-12T07:31:59.871Z,2.40
2018-09-12T07:34:28.373Z,2.90
2018-09-12T07:36:56.883Z,2.70
2018-09-12T07:39:25.396Z,3.03
2018-09-12T07:41:53.959Z,3.10
2018-09-12T07:44:22.456Z,2.43
2018-09-12T07:46:50.947Z,3.30
2018-09-12T07:49:19.507Z,2.80
2018-09-12T07:51:47.988Z,2.87
2018-09-12T07:54:16.472Z,3.00
2018-09-12T07:56:45.014Z,2.87
2018-09-12T07:59:13.496Z,2.90
2018-09-12T08:01:41.999Z,2.40
2018-09-12T08:04:10.514Z,2.70
2018-09-12T08:06:39.012Z,3.30
2018-09-12T08:09:10.739Z,3.30
2018-09-12T08:11:39.232Z,2.97
2018-09-12T08:14:07.816Z,2.70
2018-09-12T08:16:36.367Z,3.40
2018-09-12T08:19:05.198Z,2.90
2018-09-12T08:21:33.708Z,3.00
2018-09-12T08:24:02.212Z,3.03
2018-09-12T08:26:30.745Z,2.70
2018-09-12T08:28:59.279Z,2.80
2018-09-12T08:31:28.065Z,2.50
2018-09-12T08:33:56.600Z,2.87
2018-09-12T08:36:25.154Z,2.87
2018-09-12T08:38:53.667Z,2.63
2018-09-12T08:41:22.211Z,2.47
2018-09-12T08:43:50.998Z,2.93
2018-09-12T08:46:19.504Z,2.70
2018-09-12T08:48:48.096Z,2.67
2018-09-12T08:51:16.620Z,2.73
2018-09-12T08:53:45.151Z,3.00
2018-09-12T08:56:13.647Z,2.30
2018-09-12T08:58:42.230Z,2.70
2018-09-12T09:01:10.728Z,2.33
2018-09-12T09:03:39.244Z,2.23
2018-09-12T09:06:08.084Z,2.47
2018-09-12T09:08:36.616Z,2.40
2018-09-12T09:11:05.168Z,2.87
2018-09-12T09:13:33.707Z,2.10
2018-09-12T09:16:02.195Z,2.57
2018-09-12T09:18:30.716Z,2.40
2018-09-12T09:20:59.230Z,2.40
2018-09-12T09:23:28.059Z,2.40
2018-09-12T09:25:56.556Z,2.20
2018-09-12T09:28:25.064Z,2.33
2018-09-12T09:30:53.596Z,2.07
2018-09-12T09:33:22.096Z,2.53
2018-09-12T09:35:51.019Z,2.30
2018-09-12T09:38:19.485Z,2.20
2018-09-12T09:40:48.011Z,2.73
2018-09-12T09:43:16.567Z,2.60
2018-09-12T09:45:45.058Z,2.30
2018-09-12T09:48:13.748Z,2.50
2018-09-12T09:50:42.104Z,2.13
2018-09-12T09:53:10.612Z,2.60
2018-09-12T09:55:39.180Z,2.30
2018-09-12T09:58:07.693Z,2.73
2018-09-12T10:00:41.532Z,2.17
2018-09-12T10:03:15.496Z,2.43
2018-09-12T10:05:49.403Z,2.00
2018-09-12T10:08:23.399Z,2.50
2018-09-12T10:10:52.252Z,2.47
2018-09-12T10:13:20.743Z,2.47
2018-09-12T10:15:49.237Z,2.53
2018-09-12T10:18:17.972Z,2.47
2018-09-12T10:20:46.928Z,2.57
2018-09-12T10:23:15.451Z,2.73
2018-09-12T10:25:43.979Z,2.50
2018-09-12T10:28:12.491Z,2.53
2018-09-12T10:30:40.964Z,2.30
2018-09-12T10:33:09.470Z,2.73
2018-09-12T10:35:37.977Z,2.60
2018-09-12T10:38:06.493Z,2.73
2018-09-12T10:40:35.316Z,2.50
2018-09-12T10:43:04.091Z,2.50
2018-09-12T10:45:32.598Z,2.13
2018-09-12T10:48:01.093Z,2.30
2018-09-12T10:50:29.637Z,2.20
2018-09-12T10:52:58.132Z,2.43
2018-09-12T10:55:26.952Z,2.50
2018-09-12T10:57:55.641Z,2.53
2018-09-12T11:00:24.176Z,2.00
2018-09-12T11:02:52.694Z,2.33
2018-09-12T11:05:21.223Z,2.53
2018-09-12T11:07:49.758Z,2.30
2018-09-12T11:10:18.258Z,2.60
2018-09-12T11:12:47.043Z,2.53
2018-09-12T11:15:15.584Z,2.63
2018-09-12T11:17:44.119Z,2.63
2018-09-12T11:20:12.627Z,2.67
2018-09-12T11:22:41.518Z,2.03
2018-09-12T11:25:10.051Z,2.70
2018-09-12T11:27:38.567Z,2.97
2018-09-12T11:30:07.137Z,2.10
2018-09-12T11:32:35.635Z,2.93
2018-09-12T11:35:04.180Z,2.20
2018-09-12T11:37:32.677Z,2.50
2018-09-12T11:40:01.225Z,2.40
2018-09-12T11:42:29.722Z,2.87
2018-09-12T11:44:58.213Z,2.30
2018-09-12T11:47:26.725Z,2.47
2018-09-12T11:49:59.774Z,2.43
2018-09-12T11:52:29.089Z,2.40
2018-09-12T11:54:57.631Z,2.17
2018-09-12T11:57:26.146Z,2.23
2018-09-12T11:59:54.695Z,2.17
2018-09-12T12:02:23.245Z,2.30
2018-09-12T12:04:52.031Z,2.23
2018-09-12T12:07:20.516Z,2.20
2018-09-12T12:09:49.059Z,2.27
2018-09-12T12:12:17.828Z,2.50
2018-09-12T12:14:46.308Z,2.00
2018-09-12T12:17:14.933Z,1.70
2018-09-12T12:19:43.416Z,1.90
2018-09-12T12:22:11.923Z,2.00
2018-09-12T12:24:40.444Z,2.10
2018-09-12T12:27:08.927Z,2.07
2018-09-12T12:29:37.471Z,2.37
2018-09-12T12:32:05.973Z,2.00
2018-09-12T12:34:34.460Z,2.20
2018-09-12T12:37:02.967Z,2.33
2018-09-12T12:39:31.477Z,1.90
2018-09-12T12:42:00.441Z,1.87
2018-09-12T12:44:28.952Z,2.20
2018-09-12T12:46:57.470Z,2.30
2018-09-12T12:49:26.004Z,2.40
2018-09-12T12:51:54.792Z,2.30
2018-09-12T12:54:23.316Z,2.13
2018-09-12T12:56:51.835Z,2.37
2018-09-12T12:59:20.352Z,2.60
2018-09-12T13:01:48.899Z,2.20
2018-09-12T13:04:17.394Z,2.40
2018-09-12T13:06:45.999Z,2.43
2018-09-12T13:09:14.550Z,2.47
2018-09-12T13:11:43.084Z,2.07
2018-09-12T13:14:11.615Z,2.27
2018-09-12T13:16:40.151Z,2.40
2018-09-12T13:19:08.772Z,2.30
2018-09-12T13:21:37.409Z,2.27
2018-09-12T13:24:05.844Z,1.93
2018-09-12T13:26:34.340Z,2.43
2018-09-12T13:29:02.962Z,2.10
2018-09-12T13:31:31.788Z,2.60
2018-09-12T13:34:00.300Z,1.90
2018-09-12T13:36:28.823Z,2.10
2018-09-12T13:38:57.372Z,2.10
2018-09-12T13:41:25.882Z,2.17
2018-09-12T13:43:54.413Z,2.40
2018-09-12T13:46:22.939Z,2.37
2018-09-12T13:48:51.483Z,2.20
2018-09-12T13:51:19.993Z,2.53
2018-09-12T13:53:48.497Z,2.63
2018-09-12T13:56:17.018Z,2.80
2018-09-12T13:58:45.531Z,2.37
2018-09-12T14:01:14.040Z,2.20
2018-09-12T14:03:42.510Z,2.30
2018-09-12T14:06:11.033Z,2.33
2018-09-12T14:08:39.537Z,2.10
2018-09-12T14:11:08.079Z,2.63
2018-09-12T14:13:36.864Z,2.20
2018-09-12T14:16:05.408Z,2.30
2018-09-12T14:18:33.940Z,2.20
2018-09-12T14:21:02.459Z,2.27
2018-09-12T14:23:30.995Z,1.97
2018-09-12T14:25:59.536Z,2.10
2018-09-12T14:28:28.035Z,2.07
2018-09-12T14:30:56.527Z,1.80
2018-09-12T14:33:25.038Z,1.97
2018-09-12T14:35:53.597Z,1.90
2018-09-12T14:38:22.068Z,2.20
2018-09-12T14:40:50.612Z,2.73
2018-09-12T14:43:19.148Z,1.93
2018-09-12T14:45:47.666Z,1.93
2018-09-12T14:48:16.178Z,1.63
2018-09-12T14:50:44.713Z,2.07
2018-09-12T14:53:13.200Z,2.00
2018-09-12T14:55:41.792Z,1.77
2018-09-12T14:58:10.308Z,2.17
2018-09-12T15:00:38.883Z,2.03
2018-09-12T15:03:07.405Z,2.57
2018-09-12T15:05:35.916Z,2.40
2018-09-12T15:08:04.455Z,2.50
2018-09-12T15:10:33.663Z,2.23
2018-09-12T15:13:02.156Z,2.17
2018-09-12T15:15:30.644Z,2.50
2018-09-12T15:17:59.137Z,2.30
2018-09-12T15:20:27.652Z,2.30
2018-09-12T15:22:56.190Z,2.20
2018-09-12T15:25:24.688Z,1.90
2018-09-12T15:27:53.200Z,2.23
2018-09-12T15:30:22.048Z,2.07
2018-09-12T15:32:50.667Z,2.07
2018-09-12T15:35:19.189Z,2.33
2018-09-12T15:37:47.739Z,2.10
2018-09-12T15:40:16.237Z,2.13
2018-09-12T15:42:45.045Z,2.10
2018-09-12T15:45:13.695Z,2.00
2018-09-12T15:47:42.200Z,2.30
2018-09-12T15:50:10.711Z,1.60
2018-09-12T15:52:39.308Z,2.20
2018-09-12T15:55:07.819Z,1.90
2018-09-12T15:57:36.950Z,2.20
2018-09-12T16:00:05.911Z,2.10
2018-09-12T16:02:34.493Z,1.90
2018-09-12T16:05:02.981Z,2.13
2018-09-12T16:07:31.775Z,1.80
2018-09-12T16:10:00.281Z,2.20
2018-09-12T16:12:28.760Z,1.77
2018-09-12T16:14:57.276Z,1.53
2018-09-12T16:17:25.768Z,1.33
2018-09-12T16:19:54.269Z,1.80
2018-09-12T16:22:22.740Z,1.77
2018-09-12T16:24:51.246Z,1.60
2018-09-12T16:27:20.222Z,1.90
2018-09-12T16:29:48.731Z,1.97
2018-09-12T16:32:17.287Z,1.80
2018-09-12T16:34:45.883Z,1.80
2018-09-12T16:37:14.377Z,2.17
2018-09-12T16:39:42.920Z,2.23
2018-09-12T16:42:11.441Z,1.80
2018-09-12T16:44:39.967Z,1.30
2018-09-12T16:47:08.461Z,1.93
2018-09-12T16:49:36.961Z,2.20
2018-09-12T16:52:05.482Z,2.00
2018-09-12T16:54:34.001Z,2.20
2018-09-12T16:57:02.515Z,1.67
2018-09-12T16:59:31.037Z,1.90
2018-09-12T17:01:59.602Z,2.10
2018-09-12T17:04:28.120Z,1.27
2018-09-12T17:06:56.661Z,1.20
2018-09-12T17:09:25.190Z,1.90
2018-09-12T17:11:53.681Z,1.60
2018-09-12T17:14:22.197Z,2.07
2018-09-12T17:16:50.724Z,1.30
2018-09-12T17:19:19.596Z,1.43
2018-09-12T17:21:48.400Z,1.43
2018-09-12T17:24:16.877Z,1.53
2018-09-12T17:26:45.403Z,2.30
2018-09-12T17:29:13.909Z,2.33
2018-09-12T17:31:42.684Z,1.83
2018-09-12T17:34:11.207Z,2.30
2018-09-12T17:36:39.741Z,1.73
2018-09-12T17:39:09.491Z,2.10
2018-09-12T17:41:37.992Z,1.60
2018-09-12T17:44:06.544Z,2.20
2018-09-12T17:46:35.084Z,2.00
2018-09-12T17:49:03.640Z,1.97
2018-09-12T17:51:32.717Z,1.90
2018-09-12T17:54:01.461Z,1.93
2018-09-12T17:56:30.064Z,1.87
2018-09-12T17:58:58.708Z,2.30
2018-09-12T18:01:27.249Z,1.80
2018-09-12T18:03:55.756Z,3.40
2018-09-12T18:06:24.268Z,6.90
2018-09-12T18:08:53.076Z,5.83
2018-09-12T18:11:21.644Z,3.47
2018-09-12T18:13:50.168Z,3.43
2018-09-12T18:16:18.673Z,3.27
2018-09-12T18:18:47.167Z,3.27
2018-09-12T18:21:15.981Z,3.00
2018-09-12T18:23:44.484Z,2.57
2018-09-12T18:26:13.028Z,2.10
2018-09-12T18:28:41.558Z,3.70
2018-09-12T18:31:10.149Z,2.93
2018-09-12T18:33:38.661Z,3.17
2018-09-12T18:36:07.523Z,2.43
2018-09-12T18:38:36.073Z,2.33
2018-09-12T18:41:04.621Z,2.47
2018-09-12T18:43:33.100Z,2.60
2018-09-12T18:46:01.936Z,2.43
2018-09-12T18:48:30.425Z,2.30
2018-09-12T18:51:02.746Z,2.03
2018-09-12T18:53:31.255Z,2.60
2018-09-12T18:55:59.752Z,2.77
2018-09-12T18:58:28.283Z,2.43
2018-09-12T19:00:56.751Z,2.53
2018-09-12T19:03:25.311Z,2.13
2018-09-12T19:05:53.808Z,2.60
2018-09-12T19:08:22.328Z,2.60
2018-09-12T19:10:50.960Z,2.80
2018-09-12T19:13:19.653Z,2.33
2018-09-12T19:15:48.169Z,2.80
2018-09-12T19:18:16.825Z,3.57
2018-09-12T19:20:46.321Z,3.40
2018-09-12T19:23:14.973Z,3.80
2018-09-12T19:25:43.872Z,3.70
2018-09-12T19:28:12.400Z,3.40
2018-09-12T19:30:40.909Z,3.70
2018-09-12T19:33:09.433Z,3.67
2018-09-12T19:35:37.935Z,3.33
2018-09-12T19:38:06.424Z,3.50
2018-09-12T19:40:34.973Z,3.37
2018-09-12T19:43:03.484Z,4.13
2018-09-12T19:45:31.972Z,3.43
2018-09-12T19:48:00.519Z,3.67
2018-09-12T19:50:29.037Z,3.73
2018-09-12T19:52:57.564Z,3.60
2018-09-12T19:55:26.084Z,3.80
2018-09-12T19:57:54.584Z,3.60
2018-09-12T20:00:23.139Z,4.10
2018-09-12T20:02:51.645Z,3.67
2018-09-12T20:05:20.168Z,3.53
2018-09-12T20:07:48.729Z,4.53
2018-09-12T20:10:17.263Z,4.00
2018-09-12T20:12:45.788Z,4.30
2018-09-12T20:15:14.317Z,3.57
2018-09-12T20:17:42.837Z,4.13
2018-09-12T20:20:11.370Z,4.13
2018-09-12T20:22:39.903Z,3.80
2018-09-12T20:25:08.476Z,4.07
2018-09-12T20:27:36.976Z,3.50
2018-09-12T20:30:05.635Z,4.07
2018-09-12T20:32:34.195Z,3.87
2018-09-12T20:35:02.710Z,4.03
2018-09-12T20:37:31.248Z,4.57
2018-09-12T20:39:59.733Z,4.27
2018-09-12T20:42:28.218Z,3.30
2018-09-12T20:44:56.758Z,4.27
2018-09-12T20:47:25.272Z,4.30
2018-09-12T20:49:53.776Z,3.80
2018-09-12T20:52:22.310Z,4.27
2018-09-12T20:54:50.828Z,3.60
2018-09-12T20:57:19.548Z,3.50
2018-09-12T20:59:48.073Z,3.73
2018-09-12T21:02:16.552Z,3.13
2018-09-12T21:04:45.068Z,3.37
2018-09-12T21:07:13.575Z,4.17
2018-09-12T21:09:42.116Z,3.60
2018-09-12T21:12:10.604Z,3.33
2018-09-12T21:14:39.116Z,4.07
2018-09-12T21:17:07.615Z,4.20
2018-09-12T21:19:36.148Z,3.73
2018-09-12T21:22:04.660Z,3.33
2018-09-12T21:24:33.186Z,3.53
2018-09-12T21:27:02.049Z,3.30
2018-09-12T21:29:30.567Z,3.57
2018-09-12T21:31:59.080Z,3.40
2018-09-12T21:34:27.613Z,3.80
2018-09-12T21:36:56.131Z,2.90
2018-09-12T21:39:24.645Z,3.40
2018-09-12T21:41:53.132Z,4.07
2018-09-12T21:44:21.656Z,3.17
2018-09-12T21:46:50.176Z,3.03
2018-09-12T21:49:18.666Z,3.77
2018-09-12T21:51:47.200Z,3.00
2018-09-12T21:54:15.685Z,2.77
2018-09-12T21:56:44.194Z,2.60
2018-09-12T21:59:12.691Z,2.87
2018-09-12T22:01:41.226Z,2.73
2018-09-12T22:04:09.749Z,2.90
2018-09-12T22:06:38.235Z,2.63
2018-09-12T22:09:09.871Z,2.77
2018-09-12T22:11:38.405Z,2.53
2018-09-12T22:14:06.943Z,2.67
2018-09-12T22:16:35.456Z,2.13
2018-09-12T22:19:04.305Z,2.90
2018-09-12T22:21:32.828Z,3.23
2018-09-12T22:24:01.429Z,2.73
2018-09-12T22:26:29.932Z,3.13
2018-09-12T22:28:58.456Z,2.93
2018-09-12T22:31:26.945Z,2.73
2018-09-12T22:33:55.463Z,2.60
2018-09-12T22:36:23.942Z,3.10
2018-09-12T22:38:52.480Z,2.13
2018-09-12T22:41:21.181Z,2.60
2018-09-12T22:43:50.160Z,2.40
2018-09-12T22:46:18.704Z,2.10
2018-09-12T22:48:47.225Z,2.43
2018-09-12T22:51:15.768Z,2.20
2018-09-12T22:53:44.295Z,2.83
2018-09-12T22:56:12.793Z,3.00
2018-09-12T22:58:41.300Z,2.57
2018-09-12T23:01:09.815Z,2.60
2018-09-12T23:03:38.364Z,3.00
2018-09-12T23:06:06.943Z,2.70
2018-09-12T23:08:35.637Z,2.40
2018-09-12T23:11:04.167Z,2.77
2018-09-12T23:13:32.697Z,2.50
2018-09-12T23:16:01.237Z,2.97
2018-09-12T23:18:29.748Z,3.10
2018-09-12T23:20:58.236Z,2.30
2018-09-12T23:23:26.780Z,2.97
2018-09-12T23:25:55.281Z,2.80
2018-09-12T23:28:23.809Z,2.80
2018-09-12T23:30:52.333Z,2.47
2018-09-12T23:33:20.846Z,2.37
2018-09-12T23:35:49.332Z,2.40
2018-09-12T23:38:17.840Z,2.70
2018-09-12T23:40:46.356Z,2.60
2018-09-12T23:43:14.906Z,2.60
2018-09-12T23:45:43.441Z,2.60
2018-09-12T23:48:11.968Z,2.77
2018-09-12T23:50:40.481Z,2.80
2018-09-12T23:53:08.968Z,2.63
2018-09-12T23:55:37.485Z,2.33
2018-09-12T23:58:05.984Z,2.20
